createdAt,value
2022-12-01T00:00:15.937Z,73.15
2022-12-01T00:02:49.925Z,73.10
2022-12-01T00:05:22.545Z,73.51
2022-12-01T00:07:55.202Z,73.15
2022-12-01T00:10:28.562Z,72.83
2022-12-01T00:13:04.307Z,73.14
2022-12-01T00:15:37.677Z,73.22
2022-12-01T00:18:11.758Z,72.92
2022-12-01T00:20:44.868Z,72.97
2022-12-01T00:23:17.428Z,73.15
2022-12-01T00:25:49.831Z,73.23
2022-12-01T00:28:22.465Z,72.99
2022-12-01T00:30:57.021Z,73.17
2022-12-01T00:33:30.860Z,73.17
2022-12-01T00:36:03.869Z,73.05
2022-12-01T00:38:37.080Z,73.07
2022-12-01T00:41:09.620Z,72.88
2022-12-01T00:43:42.025Z,73.25
2022-12-01T00:46:14.491Z,73.24
2022-12-01T00:48:48.540Z,73.12
2022-12-01T00:51:21.024Z,73.19
2022-12-01T00:53:53.554Z,73.23
2022-12-01T00:56:26.014Z,73.22
2022-12-01T00:58:58.663Z,73.20
2022-12-01T01:01:31.141Z,73.07
2022-12-01T01:04:05.442Z,73.10
2022-12-01T01:06:37.975Z,73.25
2022-12-01T01:09:10.986Z,73.20
2022-12-01T01:11:43.708Z,73.65
2022-12-01T01:14:16.267Z,73.04
2022-12-01T01:16:49.939Z,72.94
2022-12-01T01:19:24.323Z,72.98
2022-12-01T01:21:56.819Z,72.58
2022-12-01T01:24:29.292Z,72.76
2022-12-01T01:27:01.764Z,72.85
2022-12-01T01:29:34.359Z,72.75
2022-12-01T01:32:06.762Z,72.92
2022-12-01T01:34:40.581Z,72.85
2022-12-01T01:37:13.069Z,72.84
2022-12-01T01:39:47.393Z,72.86
2022-12-01T01:42:21.080Z,72.81
2022-12-01T01:44:55.152Z,72.93
2022-12-01T01:47:32.022Z,72.78
2022-12-01T01:50:10.244Z,72.40
2022-12-01T01:52:45.446Z,72.88
2022-12-01T01:55:18.784Z,72.81
2022-12-01T01:57:51.297Z,72.90
2022-12-01T02:00:24.234Z,72.88
2022-12-01T02:02:57.928Z,72.81
2022-12-01T02:05:34.871Z,73.05
2022-12-01T02:08:12.488Z,72.66
2022-12-01T02:11:08.535Z,72.70
2022-12-01T02:13:52.169Z,72.82
2022-12-01T02:16:30.662Z,72.90
2022-12-01T02:19:36.973Z,72.62
2022-12-01T02:22:23.208Z,72.54
2022-12-01T02:25:20.749Z,72.71
2022-12-01T02:28:14.715Z,72.90
2022-12-01T02:30:54.374Z,72.93
2022-12-01T02:33:35.829Z,72.76
2022-12-01T02:36:18.043Z,72.92
2022-12-01T02:38:57.415Z,72.97
2022-12-01T02:41:36.592Z,73.13
2022-12-01T02:44:14.464Z,73.00
2022-12-01T02:46:54.556Z,73.20
2022-12-01T02:49:31.107Z,72.80
2022-12-01T02:52:06.339Z,72.91
2022-12-01T02:54:39.852Z,72.83
2022-12-01T02:57:14.920Z,73.14
2022-12-01T02:59:51.362Z,72.91
2022-12-01T03:02:33.226Z,72.87
2022-12-01T03:05:11.339Z,72.70
2022-12-01T03:07:57.603Z,72.72
2022-12-01T03:10:40.466Z,73.00
2022-12-01T03:13:25.968Z,72.73
2022-12-01T03:16:05.161Z,73.00
2022-12-01T03:18:43.706Z,72.55
2022-12-01T03:21:24.537Z,72.91
2022-12-01T03:24:02.567Z,72.74
2022-12-01T03:26:38.331Z,72.92
2022-12-01T03:29:15.214Z,72.57
2022-12-01T03:31:53.477Z,73.01
2022-12-01T03:34:33.308Z,72.76
2022-12-01T03:37:10.102Z,72.61
2022-12-01T03:39:44.088Z,73.14
2022-12-01T03:42:22.430Z,72.72
2022-12-01T03:44:59.427Z,72.87
2022-12-01T03:47:32.702Z,72.89
2022-12-01T03:50:13.397Z,73.00
2022-12-01T03:52:57.915Z,73.04
2022-12-01T03:55:33.317Z,73.15
2022-12-01T03:58:10.313Z,73.25
2022-12-01T04:00:45.115Z,73.00
2022-12-01T04:03:19.268Z,73.09
2022-12-01T04:05:53.254Z,73.17
2022-12-01T04:08:25.965Z,72.61
2022-12-01T04:10:58.464Z,73.08
2022-12-01T04:13:31.067Z,72.89
2022-12-01T04:16:06.429Z,73.19
2022-12-01T04:18:39.017Z,72.98
2022-12-01T04:21:12.795Z,73.03
2022-12-01T04:24:00.586Z,73.13
2022-12-01T04:26:35.038Z,73.31
2022-12-01T04:29:09.420Z,72.96
2022-12-01T04:31:41.945Z,73.30
2022-12-01T04:34:14.475Z,72.60
2022-12-01T04:36:48.493Z,72.83
2022-12-01T04:39:21.226Z,73.01
2022-12-01T04:41:53.656Z,73.36
2022-12-01T04:44:30.119Z,72.95
2022-12-01T04:47:06.547Z,73.40
2022-12-01T04:49:39.356Z,73.02
2022-12-01T04:52:13.226Z,73.25
2022-12-01T04:54:45.755Z,72.89
2022-12-01T04:57:18.125Z,72.92
2022-12-01T04:59:51.000Z,73.29
2022-12-01T05:02:23.711Z,73.16
2022-12-01T05:04:56.265Z,73.35
2022-12-01T05:07:30.174Z,72.63
2022-12-01T05:10:02.848Z,73.24
2022-12-01T05:12:35.599Z,73.03
2022-12-01T05:15:09.146Z,72.72
2022-12-01T05:17:41.702Z,73.12
2022-12-01T05:20:38.311Z,72.93
2022-12-01T05:23:16.504Z,73.13
2022-12-01T05:25:49.570Z,72.88
2022-12-01T05:28:23.238Z,72.94
2022-12-01T05:30:56.028Z,73.16
2022-12-01T05:33:29.085Z,73.22
2022-12-01T05:36:01.547Z,73.41
2022-12-01T05:38:35.372Z,72.89
2022-12-01T05:41:09.636Z,73.07
2022-12-01T05:43:42.225Z,73.46
2022-12-01T05:46:14.762Z,72.69
2022-12-01T05:48:47.469Z,73.22
2022-12-01T05:51:20.061Z,72.84
2022-12-01T05:53:53.850Z,73.05
2022-12-01T05:56:26.490Z,73.07
2022-12-01T05:58:58.862Z,72.67
2022-12-01T06:01:31.578Z,73.17
2022-12-01T06:04:04.515Z,73.12
2022-12-01T06:06:36.968Z,73.04
2022-12-01T06:09:11.075Z,72.77
2022-12-01T06:11:43.696Z,72.98
2022-12-01T06:14:16.275Z,72.87
2022-12-01T06:16:48.871Z,72.39
2022-12-01T06:19:21.577Z,72.81
2022-12-01T06:21:54.120Z,72.36
2022-12-01T06:24:27.969Z,72.83
2022-12-01T06:27:00.544Z,72.84
2022-12-01T06:29:34.073Z,72.66
2022-12-01T06:32:09.627Z,72.92
2022-12-01T06:34:43.751Z,72.91
2022-12-01T06:37:16.925Z,72.72
2022-12-01T06:39:51.026Z,72.40
2022-12-01T06:42:23.961Z,72.79
2022-12-01T06:44:56.393Z,72.80
2022-12-01T06:47:28.887Z,72.67
2022-12-01T06:50:01.331Z,73.06
2022-12-01T06:52:35.724Z,73.19
2022-12-01T06:55:09.992Z,73.09
2022-12-01T06:57:43.668Z,73.17
2022-12-01T07:00:17.420Z,73.05
2022-12-01T07:02:50.861Z,72.71
2022-12-01T07:05:23.322Z,73.19
2022-12-01T07:07:59.482Z,73.06
2022-12-01T07:10:33.784Z,72.54
2022-12-01T07:13:06.418Z,73.11
2022-12-01T07:15:38.958Z,73.20
2022-12-01T07:18:11.368Z,73.00
2022-12-01T07:20:43.816Z,72.82
2022-12-01T07:23:17.011Z,72.90
2022-12-01T07:25:58.627Z,72.90
2022-12-01T07:28:31.518Z,72.81
2022-12-01T07:31:05.327Z,73.37
2022-12-01T07:33:38.634Z,72.91
2022-12-01T07:36:12.525Z,73.12
2022-12-01T07:38:45.049Z,72.79
2022-12-01T07:41:19.322Z,72.79
2022-12-01T07:43:58.099Z,72.88
2022-12-01T07:46:30.848Z,72.99
2022-12-01T07:49:06.179Z,73.42
2022-12-01T07:51:41.289Z,72.97
2022-12-01T07:54:17.937Z,72.90
2022-12-01T07:56:51.936Z,72.81
2022-12-01T07:59:24.410Z,72.86
2022-12-01T08:01:56.974Z,73.18
2022-12-01T08:04:29.597Z,73.24
2022-12-01T08:07:02.095Z,73.13
2022-12-01T08:09:34.538Z,73.34
2022-12-01T08:12:08.386Z,72.78
2022-12-01T08:14:40.884Z,73.36
2022-12-01T08:17:13.255Z,72.86
2022-12-01T08:19:45.744Z,72.84
2022-12-01T08:22:18.245Z,73.36
2022-12-01T08:24:50.964Z,73.49
2022-12-01T08:27:24.813Z,73.30
2022-12-01T08:29:57.322Z,73.04
2022-12-01T08:32:29.932Z,72.79
2022-12-01T08:35:02.927Z,73.21
2022-12-01T08:37:35.600Z,73.30
2022-12-01T08:40:11.895Z,73.33
2022-12-01T08:42:46.730Z,72.80
2022-12-01T08:45:19.440Z,73.29
2022-12-01T08:47:53.563Z,72.97
2022-12-01T08:50:26.612Z,72.84
2022-12-01T08:52:58.984Z,73.06
2022-12-01T08:55:31.581Z,72.83
2022-12-01T08:58:05.376Z,73.28
2022-12-01T09:00:37.925Z,73.32
2022-12-01T09:03:13.438Z,73.40
2022-12-01T09:05:46.152Z,73.30
2022-12-01T09:08:36.655Z,72.70
2022-12-01T09:11:12.450Z,72.79
2022-12-01T09:13:52.953Z,73.04
2022-12-01T09:16:28.718Z,72.80
2022-12-01T09:19:01.302Z,72.67
2022-12-01T09:21:37.174Z,72.99
2022-12-01T09:24:11.234Z,73.04
2022-12-01T09:26:43.907Z,73.20
2022-12-01T09:29:17.833Z,73.28
2022-12-01T09:31:50.370Z,72.60
2022-12-01T09:34:23.223Z,72.89
2022-12-01T09:36:57.224Z,73.37
2022-12-01T09:39:29.957Z,73.00
2022-12-01T09:42:09.014Z,72.71
2022-12-01T09:44:47.730Z,72.89
2022-12-01T09:47:24.480Z,72.47
2022-12-01T09:50:02.554Z,72.88
2022-12-01T09:52:41.114Z,72.84
2022-12-01T09:55:15.509Z,72.87
2022-12-01T09:57:49.780Z,72.62
2022-12-01T10:00:25.725Z,72.98
2022-12-01T10:03:07.076Z,72.88
2022-12-01T10:06:10.367Z,72.79
2022-12-01T10:08:41.968Z,72.59
2022-12-01T10:11:27.928Z,72.84
2022-12-01T10:14:03.751Z,72.71
2022-12-01T10:16:55.047Z,72.52
2022-12-01T10:19:37.863Z,72.87
2022-12-01T10:22:26.996Z,72.37
2022-12-01T10:25:05.677Z,72.64
2022-12-01T10:27:50.119Z,72.38
2022-12-01T10:30:24.446Z,72.79
2022-12-01T10:33:05.127Z,72.31
2022-12-01T10:35:39.637Z,72.18
2022-12-01T10:38:19.540Z,72.33
2022-12-01T10:40:53.803Z,72.31
2022-12-01T10:43:32.037Z,72.29
2022-12-01T10:46:18.487Z,72.07
2022-12-01T10:48:57.199Z,72.52
2022-12-01T10:51:30.301Z,71.73
2022-12-01T10:54:11.540Z,72.33
2022-12-01T10:56:47.801Z,72.04
2022-12-01T10:59:26.044Z,72.41
2022-12-01T11:01:59.817Z,72.14
2022-12-01T11:04:45.709Z,71.80
2022-12-01T11:07:24.423Z,72.32
2022-12-01T11:10:14.883Z,72.16
2022-12-01T11:13:06.788Z,72.21
2022-12-01T11:15:49.154Z,71.61
2022-12-01T11:18:23.563Z,71.62
2022-12-01T11:21:08.932Z,71.81
2022-12-01T11:23:46.259Z,71.70
2022-12-01T11:26:21.171Z,72.04
2022-12-01T11:28:56.751Z,72.06
2022-12-01T11:31:38.348Z,71.83
2022-12-01T11:34:19.004Z,72.00
2022-12-01T11:36:56.335Z,71.83
2022-12-01T11:39:32.709Z,72.07
2022-12-01T11:42:15.508Z,72.05
2022-12-01T11:44:52.180Z,72.13
2022-12-01T11:47:28.029Z,72.02
2022-12-01T11:50:08.630Z,71.85
2022-12-01T11:52:47.780Z,71.88
2022-12-01T11:55:23.020Z,72.00
2022-12-01T11:57:58.459Z,71.78
2022-12-01T12:00:41.581Z,71.35
2022-12-01T12:03:25.471Z,71.86
2022-12-01T12:06:39.366Z,71.77
2022-12-01T12:09:45.616Z,71.89
2022-12-01T12:12:29.985Z,71.91
2022-12-01T12:15:13.222Z,71.81
2022-12-01T12:18:00.455Z,71.79
2022-12-01T12:21:00.038Z,71.89
2022-12-01T12:23:47.624Z,71.87
2022-12-01T12:26:25.620Z,72.13
2022-12-01T12:29:17.688Z,71.72
2022-12-01T12:32:03.339Z,72.04
2022-12-01T12:34:48.951Z,71.78
2022-12-01T12:37:31.016Z,71.83
2022-12-01T12:40:19.411Z,71.74
2022-12-01T12:43:06.925Z,71.68
2022-12-01T12:45:53.238Z,71.53
2022-12-01T12:49:19.294Z,72.03
2022-12-01T12:51:46.542Z,71.69
2022-12-01T12:54:25.626Z,71.74
2022-12-01T12:57:03.590Z,71.89
2022-12-01T12:59:47.302Z,71.82
2022-12-01T13:02:27.094Z,71.41
2022-12-01T13:05:05.111Z,71.60
2022-12-01T13:07:42.537Z,71.77
2022-12-01T13:10:26.939Z,71.75
2022-12-01T13:13:04.817Z,71.54
2022-12-01T13:15:41.049Z,71.85
2022-12-01T13:18:25.258Z,71.62
2022-12-01T13:20:58.466Z,71.37
2022-12-01T13:23:32.733Z,71.12
2022-12-01T13:26:08.865Z,70.74
2022-12-01T13:28:46.242Z,70.58
2022-12-01T13:31:21.228Z,70.75
2022-12-01T13:34:00.059Z,70.60
2022-12-01T13:36:49.197Z,70.90
2022-12-01T13:39:23.763Z,70.76
2022-12-01T13:42:02.529Z,70.52
2022-12-01T13:44:41.398Z,70.49
2022-12-01T13:47:47.206Z,70.64
2022-12-01T13:50:59.234Z,70.81
2022-12-01T13:53:34.132Z,70.76
2022-12-01T13:56:39.464Z,70.51
2022-12-01T13:59:39.226Z,70.55
2022-12-01T14:02:18.430Z,70.69
2022-12-01T14:04:52.725Z,70.38
2022-12-01T14:07:39.692Z,70.83
2022-12-01T14:10:33.415Z,70.81
2022-12-01T14:13:07.077Z,71.06
2022-12-01T14:15:42.931Z,71.14
2022-12-01T14:18:34.526Z,71.25
2022-12-01T14:21:10.667Z,71.20
2022-12-01T14:24:04.438Z,71.29
2022-12-01T14:26:45.683Z,71.49
2022-12-01T14:29:34.027Z,71.57
2022-12-01T14:32:22.023Z,71.18
2022-12-01T14:34:59.028Z,71.15
2022-12-01T14:37:42.756Z,71.62
2022-12-01T14:40:29.483Z,71.31
2022-12-01T14:43:23.130Z,71.24
2022-12-01T14:46:04.880Z,71.29
2022-12-01T14:48:42.120Z,71.38
2022-12-01T14:51:23.022Z,71.60
2022-12-01T14:53:57.565Z,71.46
2022-12-01T14:56:33.565Z,71.89
2022-12-01T14:59:19.148Z,71.66
2022-12-01T15:01:54.057Z,71.51
2022-12-01T15:04:26.562Z,71.62
2022-12-01T15:06:59.137Z,71.76
2022-12-01T15:09:34.408Z,71.63
2022-12-01T15:12:26.859Z,71.64
2022-12-01T15:14:59.288Z,71.31
2022-12-01T15:17:34.893Z,72.00
2022-12-01T15:20:27.813Z,71.42
2022-12-01T15:23:02.816Z,71.50
2022-12-01T15:25:37.183Z,71.77
2022-12-01T15:28:15.605Z,71.60
2022-12-01T15:30:50.009Z,71.67
2022-12-01T15:33:27.822Z,72.04
2022-12-01T15:36:03.191Z,71.66
2022-12-01T15:38:37.744Z,71.71
2022-12-01T15:41:28.958Z,71.93
2022-12-01T15:44:05.671Z,72.13
2022-12-01T15:46:38.255Z,72.11
2022-12-01T15:49:18.196Z,71.86
2022-12-01T15:51:52.120Z,71.96
2022-12-01T15:54:26.750Z,72.15
2022-12-01T15:57:00.188Z,72.06
2022-12-01T15:59:37.865Z,72.16
2022-12-01T16:02:27.190Z,72.01
2022-12-01T16:05:06.903Z,72.04
2022-12-01T16:08:12.527Z,72.23
2022-12-01T16:10:43.041Z,71.72
2022-12-01T16:13:45.358Z,71.60
2022-12-01T16:16:30.393Z,72.15
2022-12-01T16:19:06.084Z,71.89
2022-12-01T16:21:45.599Z,72.14
2022-12-01T16:24:22.167Z,72.02
2022-12-01T16:26:57.884Z,71.76
2022-12-01T16:29:34.069Z,72.10
2022-12-01T16:32:20.964Z,71.53
2022-12-01T16:34:54.428Z,72.06
2022-12-01T16:37:28.081Z,71.82
2022-12-01T16:40:00.673Z,71.84
2022-12-01T16:42:33.188Z,71.97
2022-12-01T16:45:06.592Z,72.20
2022-12-01T16:47:40.866Z,72.15
2022-12-01T16:50:14.932Z,72.42
2022-12-01T16:52:47.689Z,72.31
2022-12-01T16:55:35.294Z,72.14
2022-12-01T16:58:08.079Z,71.88
2022-12-01T17:00:40.844Z,71.88
2022-12-01T17:03:17.763Z,72.47
2022-12-01T17:05:51.800Z,72.06
2022-12-01T17:08:24.487Z,72.17
2022-12-01T17:10:57.180Z,71.87
2022-12-01T17:13:30.342Z,71.92
2022-12-01T17:16:06.206Z,71.86
2022-12-01T17:18:40.935Z,72.08
2022-12-01T17:21:13.701Z,72.22
2022-12-01T17:23:46.417Z,72.27
2022-12-01T17:26:20.836Z,71.80
2022-12-01T17:28:54.716Z,72.22
2022-12-01T17:31:27.706Z,72.27
2022-12-01T17:34:01.903Z,71.78
2022-12-01T17:36:34.571Z,71.93
2022-12-01T17:39:07.220Z,71.79
2022-12-01T17:41:41.075Z,72.01
2022-12-01T17:44:13.611Z,72.29
2022-12-01T17:46:46.269Z,71.38
2022-12-01T17:49:20.296Z,71.69
2022-12-01T17:51:52.748Z,71.79
2022-12-01T17:54:25.382Z,71.70
2022-12-01T17:56:58.115Z,71.82
2022-12-01T17:59:30.852Z,72.02
2022-12-01T18:02:05.529Z,71.94
2022-12-01T18:04:39.663Z,71.73
2022-12-01T18:07:12.210Z,71.95
2022-12-01T18:09:46.800Z,72.20
2022-12-01T18:12:19.457Z,72.28
2022-12-01T18:14:52.092Z,72.21
2022-12-01T18:17:26.133Z,71.47
2022-12-01T18:20:00.265Z,72.05
2022-12-01T18:22:32.880Z,72.13
2022-12-01T18:25:06.026Z,71.98
2022-12-01T18:27:38.745Z,71.99
2022-12-01T18:30:12.486Z,72.09
2022-12-01T18:32:45.044Z,72.25
2022-12-01T18:35:19.118Z,72.17
2022-12-01T18:37:51.748Z,72.16
2022-12-01T18:40:24.592Z,72.25
2022-12-01T18:42:57.087Z,71.91
2022-12-01T18:45:29.695Z,72.13
2022-12-01T18:48:05.118Z,72.23
2022-12-01T18:50:39.384Z,71.78
2022-12-01T18:53:11.916Z,72.23
2022-12-01T18:55:44.418Z,71.93
2022-12-01T18:58:17.095Z,72.11
2022-12-01T19:00:49.855Z,71.99
2022-12-01T19:03:25.049Z,72.12
2022-12-01T19:05:59.762Z,71.88
2022-12-01T19:08:32.441Z,72.08
2022-12-01T19:11:05.343Z,72.21
2022-12-01T19:13:37.967Z,72.09
2022-12-01T19:16:12.622Z,72.04
2022-12-01T19:18:45.573Z,71.86
2022-12-01T19:21:21.098Z,71.82
2022-12-01T19:23:54.886Z,72.22
2022-12-01T19:26:27.669Z,72.16
2022-12-01T19:29:00.296Z,72.09
2022-12-01T19:31:32.978Z,71.77
2022-12-01T19:34:07.885Z,71.90
2022-12-01T19:36:41.803Z,72.27
2022-12-01T19:39:14.384Z,72.02
2022-12-01T19:41:47.021Z,71.92
2022-12-01T19:44:20.278Z,72.02
2022-12-01T19:46:52.805Z,71.73
2022-12-01T19:49:25.371Z,71.94
2022-12-01T19:51:59.325Z,72.14
2022-12-01T19:54:33.112Z,71.94
2022-12-01T19:57:05.729Z,72.01
2022-12-01T19:59:38.291Z,71.81
2022-12-01T20:02:11.840Z,71.92
2022-12-01T20:04:44.316Z,71.64
2022-12-01T20:07:18.262Z,71.60
2022-12-01T20:09:50.950Z,71.98
2022-12-01T20:12:23.674Z,72.11
2022-12-01T20:14:56.536Z,71.48
2022-12-01T20:17:29.962Z,72.03
2022-12-01T20:20:03.448Z,71.67
2022-12-01T20:22:38.045Z,71.81
2022-12-01T20:25:11.043Z,71.68
2022-12-01T20:27:45.572Z,71.92
2022-12-01T20:30:18.445Z,71.66
2022-12-01T20:32:50.976Z,71.91
2022-12-01T20:35:23.446Z,71.79
2022-12-01T20:37:57.340Z,71.74
2022-12-01T20:40:29.871Z,71.75
2022-12-01T20:43:02.446Z,71.67
2022-12-01T20:45:35.045Z,71.83
2022-12-01T20:48:07.577Z,71.83
2022-12-01T20:50:40.104Z,71.36
2022-12-01T20:53:16.916Z,72.19
2022-12-01T20:55:49.359Z,71.33
2022-12-01T20:58:22.321Z,71.56
2022-12-01T21:00:54.927Z,71.82
2022-12-01T21:03:27.717Z,71.52
2022-12-01T21:06:00.246Z,71.66
2022-12-01T21:08:37.916Z,71.51
2022-12-01T21:11:19.070Z,71.44
2022-12-01T21:13:52.262Z,71.27
2022-12-01T21:16:28.023Z,71.62
2022-12-01T21:19:01.974Z,71.66
2022-12-01T21:21:38.406Z,71.24
2022-12-01T21:24:14.904Z,71.59
2022-12-01T21:26:49.709Z,71.44
2022-12-01T21:29:25.125Z,71.32
2022-12-01T21:32:03.073Z,71.12
2022-12-01T21:34:35.920Z,71.22
2022-12-01T21:37:13.432Z,71.34
2022-12-01T21:39:51.150Z,71.39
2022-12-01T21:42:26.920Z,71.50
2022-12-01T21:45:00.389Z,70.95
2022-12-01T21:47:34.703Z,70.98
2022-12-01T21:50:14.542Z,71.70
2022-12-01T21:52:48.085Z,71.26
2022-12-01T21:55:36.133Z,71.54
2022-12-01T21:58:25.283Z,71.51
2022-12-01T22:00:59.134Z,71.17
2022-12-01T22:03:33.802Z,71.49
2022-12-01T22:06:32.712Z,71.40
2022-12-01T22:09:15.639Z,71.20
2022-12-01T22:11:53.053Z,71.13
2022-12-01T22:14:32.570Z,70.98
2022-12-01T22:17:18.889Z,71.36
2022-12-01T22:19:55.664Z,71.39
2022-12-01T22:22:29.818Z,71.28
2022-12-01T22:25:24.462Z,71.34
2022-12-01T22:28:00.313Z,71.62
2022-12-01T22:30:32.776Z,71.21
2022-12-01T22:33:12.978Z,71.11
2022-12-01T22:35:48.356Z,71.38
2022-12-01T22:38:29.818Z,71.31
2022-12-01T22:41:05.734Z,71.24
2022-12-01T22:43:43.779Z,71.38
2022-12-01T22:46:31.624Z,70.98
2022-12-01T22:49:15.867Z,70.87
2022-12-01T22:51:49.626Z,70.78
2022-12-01T22:54:32.752Z,71.10
2022-12-01T22:57:37.276Z,71.03
2022-12-01T23:00:17.897Z,71.18
2022-12-01T23:02:52.726Z,70.91
2022-12-01T23:05:29.217Z,71.57
2022-12-01T23:08:03.030Z,71.11
2022-12-01T23:10:36.090Z,71.43
2022-12-01T23:13:14.065Z,71.22
2022-12-01T23:15:50.831Z,71.23
2022-12-01T23:18:25.266Z,71.31
2022-12-01T23:20:59.238Z,71.03
2022-12-01T23:23:34.140Z,71.24
2022-12-01T23:26:08.160Z,71.18
2022-12-01T23:28:41.487Z,71.25
2022-12-01T23:31:15.473Z,71.33
2022-12-01T23:33:48.034Z,71.34
2022-12-01T23:36:23.669Z,71.18
2022-12-01T23:38:58.077Z,71.13
2022-12-01T23:41:36.017Z,71.08
2022-12-01T23:44:16.736Z,71.49
2022-12-01T23:46:53.383Z,71.40
2022-12-01T23:49:29.923Z,71.07
2022-12-01T23:52:03.822Z,71.33
2022-12-01T23:54:38.795Z,71.41
2022-12-01T23:57:16.902Z,71.06
2022-12-01T23:59:50.582Z,71.38
